createdAt,value
2018-06-25T00:02:04.152Z,5.37
2018-06-25T00:04:32.597Z,4.60
2018-06-25T00:07:01.196Z,4.97
2018-06-25T00:09:29.700Z,4.70
2018-06-25T00:11:58.678Z,4.83
2018-06-25T00:14:27.274Z,4.40
2018-06-25T00:16:55.792Z,5.17
2018-06-25T00:19:24.298Z,4.27
2018-06-25T00:21:52.924Z,4.90
2018-06-25T00:24:22.136Z,4.70
2018-06-25T00:26:51.011Z,4.40
2018-06-25T00:29:19.566Z,4.57
2018-06-25T00:31:48.123Z,4.90
2018-06-25T00:34:16.656Z,4.70
2018-06-25T00:36:45.186Z,4.63
2018-06-25T00:39:13.696Z,4.37
2018-06-25T00:41:42.216Z,4.93
2018-06-25T00:44:10.693Z,4.20
2018-06-25T00:46:39.304Z,4.60
2018-06-25T00:49:07.955Z,3.87
2018-06-25T00:51:37.234Z,4.13
2018-06-25T00:54:06.308Z,4.10
2018-06-25T00:56:34.776Z,4.20
2018-06-25T00:59:14.437Z,4.27
2018-06-25T01:01:42.958Z,4.10
2018-06-25T01:04:11.440Z,4.20
2018-06-25T01:06:39.945Z,5.50
2018-06-25T01:09:10.382Z,4.10
2018-06-25T01:11:38.932Z,3.90
2018-06-25T01:14:08.593Z,4.00
2018-06-25T01:16:37.259Z,3.80
2018-06-25T01:19:05.682Z,3.70
2018-06-25T01:21:34.194Z,4.00
2018-06-25T01:24:03.165Z,3.80
2018-06-25T01:26:32.268Z,3.30
2018-06-25T01:29:00.965Z,3.50
2018-06-25T01:31:29.441Z,3.50
2018-06-25T01:33:57.993Z,3.60
2018-06-25T01:36:26.585Z,3.07
2018-06-25T01:38:55.129Z,3.67
2018-06-25T01:41:24.283Z,3.70
2018-06-25T01:43:53.277Z,3.47
2018-06-25T01:46:21.829Z,4.20
2018-06-25T01:48:50.893Z,4.20
2018-06-25T01:51:19.330Z,3.57
2018-06-25T01:53:47.850Z,3.90
2018-06-25T01:56:16.322Z,4.10
2018-06-25T01:58:44.765Z,3.57
2018-06-25T02:01:13.282Z,3.60
2018-06-25T02:03:41.852Z,4.63
2018-06-25T02:06:10.993Z,4.10
2018-06-25T02:08:43.935Z,4.83
2018-06-25T02:11:12.506Z,3.20
2018-06-25T02:13:41.033Z,3.73
2018-06-25T02:16:12.886Z,3.30
2018-06-25T02:18:41.416Z,3.30
2018-06-25T02:21:09.933Z,3.40
2018-06-25T02:23:40.762Z,3.30
2018-06-25T02:26:09.339Z,3.00
2018-06-25T02:28:38.382Z,2.90
2018-06-25T02:31:07.825Z,2.83
2018-06-25T02:33:37.312Z,2.83
2018-06-25T02:36:07.190Z,2.50
2018-06-25T02:38:35.736Z,2.50
2018-06-25T02:41:05.333Z,2.20
2018-06-25T02:43:34.139Z,2.00
2018-06-25T02:46:02.590Z,2.20
2018-06-25T02:48:31.833Z,1.70
2018-06-25T02:51:00.330Z,2.70
2018-06-25T02:53:28.834Z,2.47
2018-06-25T02:55:57.328Z,2.30
2018-06-25T02:58:25.936Z,2.27
2018-06-25T03:00:55.043Z,2.27
2018-06-25T03:03:23.648Z,2.20
2018-06-25T03:05:52.098Z,2.30
2018-06-25T03:08:20.546Z,2.00
2018-06-25T03:10:49.203Z,2.33
2018-06-25T03:13:17.712Z,2.33
2018-06-25T03:15:46.363Z,2.23
2018-06-25T03:18:15.427Z,2.47
2018-06-25T03:20:44.049Z,2.57
2018-06-25T03:23:12.662Z,2.67
2018-06-25T03:25:41.187Z,2.53
2018-06-25T03:28:09.740Z,2.77
2018-06-25T03:30:38.390Z,2.40
2018-06-25T03:33:06.855Z,2.53
2018-06-25T03:35:35.473Z,2.27
2018-06-25T03:38:03.938Z,2.73
2018-06-25T03:40:32.419Z,2.40
2018-06-25T03:43:00.880Z,2.30
2018-06-25T03:45:29.406Z,2.50
2018-06-25T03:47:57.871Z,2.50
2018-06-25T03:50:26.965Z,2.53
2018-06-25T03:52:55.473Z,2.63
2018-06-25T03:55:23.948Z,2.90
2018-06-25T03:57:53.020Z,2.40
2018-06-25T04:00:22.160Z,2.50
2018-06-25T04:02:50.659Z,2.43
2018-06-25T04:05:19.166Z,2.30
2018-06-25T04:07:47.809Z,2.80
2018-06-25T04:10:16.290Z,2.60
2018-06-25T04:12:44.855Z,4.50
2018-06-25T04:15:13.380Z,2.43
2018-06-25T04:17:41.899Z,2.70
2018-06-25T04:20:10.444Z,2.30
2018-06-25T04:22:39.052Z,2.73
2018-06-25T04:25:07.731Z,2.23
2018-06-25T04:27:36.839Z,2.43
2018-06-25T04:30:05.514Z,2.10
2018-06-25T04:32:37.271Z,2.60
2018-06-25T04:35:05.951Z,2.57
2018-06-25T04:37:36.477Z,2.23
2018-06-25T04:40:05.033Z,2.50
2018-06-25T04:42:33.504Z,2.70
2018-06-25T04:45:02.104Z,2.73
2018-06-25T04:47:30.742Z,2.40
2018-06-25T04:49:59.972Z,2.40
2018-06-25T04:52:28.693Z,2.30
2018-06-25T04:54:57.370Z,2.60
2018-06-25T04:57:26.048Z,2.60
2018-06-25T04:59:54.657Z,2.90
2018-06-25T05:02:23.958Z,3.00
2018-06-25T05:04:52.579Z,2.47
2018-06-25T05:07:21.292Z,2.67
2018-06-25T05:09:49.874Z,2.80
2018-06-25T05:12:18.344Z,3.00
2018-06-25T05:14:48.228Z,2.67
2018-06-25T05:17:16.673Z,2.50
2018-06-25T05:19:46.228Z,2.80
2018-06-25T05:22:14.910Z,2.47
2018-06-25T05:24:43.493Z,2.43
2018-06-25T05:27:12.089Z,2.50
2018-06-25T05:29:40.551Z,2.50
2018-06-25T05:32:09.205Z,3.20
2018-06-25T05:34:38.487Z,2.60
2018-06-25T05:37:07.024Z,2.40
2018-06-25T05:39:35.903Z,2.70
2018-06-25T05:42:05.940Z,2.40
2018-06-25T05:44:34.549Z,2.47
2018-06-25T05:47:03.117Z,2.50
2018-06-25T05:49:36.334Z,2.50
2018-06-25T05:52:04.861Z,2.37
2018-06-25T05:54:33.417Z,2.40
2018-06-25T05:57:01.922Z,2.20
2018-06-25T05:59:30.993Z,2.30
2018-06-25T06:01:59.497Z,2.03
2018-06-25T06:04:28.059Z,2.30
2018-06-25T06:06:56.528Z,2.07
2018-06-25T06:09:25.228Z,2.20
2018-06-25T06:11:53.870Z,2.67
2018-06-25T06:14:22.930Z,2.47
2018-06-25T06:16:53.103Z,3.10
2018-06-25T06:19:21.594Z,2.63
2018-06-25T06:21:50.433Z,2.80
2018-06-25T06:24:18.942Z,2.17
2018-06-25T06:26:48.459Z,2.57
2018-06-25T06:29:17.154Z,2.90
2018-06-25T06:31:46.049Z,3.10
2018-06-25T06:34:14.546Z,2.97
2018-06-25T06:36:43.092Z,2.80
2018-06-25T06:39:15.440Z,3.00
2018-06-25T06:41:45.413Z,2.90
2018-06-25T06:44:14.441Z,2.90
2018-06-25T06:46:42.956Z,2.77
2018-06-25T06:49:12.148Z,3.17
2018-06-25T06:51:40.835Z,2.90
2018-06-25T06:54:09.839Z,2.90
2018-06-25T06:56:38.492Z,2.90
2018-06-25T06:59:06.975Z,3.30
2018-06-25T07:01:35.636Z,2.87
2018-06-25T07:04:04.222Z,3.00
2018-06-25T07:06:33.167Z,2.80
2018-06-25T07:09:01.694Z,2.93
2018-06-25T07:11:30.226Z,2.80
2018-06-25T07:13:58.800Z,3.17
2018-06-25T07:16:27.473Z,2.90
2018-06-25T07:18:57.225Z,3.10
2018-06-25T07:21:25.931Z,2.37
2018-06-25T07:23:55.162Z,2.97
2018-06-25T07:26:26.062Z,2.87
2018-06-25T07:28:56.126Z,3.10
2018-06-25T07:31:25.876Z,2.60
2018-06-25T07:33:54.814Z,3.43
2018-06-25T07:36:25.044Z,2.67
2018-06-25T07:38:53.545Z,2.90
2018-06-25T07:41:22.146Z,2.93
2018-06-25T07:43:50.765Z,2.43
2018-06-25T07:46:19.278Z,2.77
2018-06-25T07:48:47.739Z,2.67
2018-06-25T07:51:16.350Z,2.73
2018-06-25T07:53:44.849Z,2.80
2018-06-25T07:56:13.754Z,2.37
2018-06-25T07:58:42.466Z,2.17
2018-06-25T08:01:10.989Z,1.90
2018-06-25T08:03:39.619Z,2.50
2018-06-25T08:06:08.903Z,2.97
2018-06-25T08:08:37.416Z,2.83
2018-06-25T08:11:05.911Z,2.60
2018-06-25T08:13:34.507Z,2.53
2018-06-25T08:16:03.108Z,2.30
2018-06-25T08:18:31.582Z,2.40
2018-06-25T08:21:00.069Z,2.10
2018-06-25T08:23:29.195Z,2.20
2018-06-25T08:25:57.914Z,2.13
2018-06-25T08:28:27.006Z,2.40
2018-06-25T08:30:59.582Z,2.20
2018-06-25T08:33:28.795Z,2.90
2018-06-25T08:35:57.330Z,2.43
2018-06-25T08:38:25.847Z,2.70
2018-06-25T08:40:55.480Z,2.73
2018-06-25T08:43:24.823Z,3.20
2018-06-25T08:45:53.732Z,2.70
2018-06-25T08:48:22.233Z,3.20
2018-06-25T08:50:54.582Z,3.13
2018-06-25T08:53:23.173Z,3.10
2018-06-25T08:55:52.693Z,2.87
2018-06-25T08:58:21.283Z,3.20
2018-06-25T09:00:49.769Z,3.30
2018-06-25T09:03:18.384Z,3.30
2018-06-25T09:05:47.362Z,2.80
2018-06-25T09:08:16.528Z,3.80
2018-06-25T09:10:45.037Z,2.90
2018-06-25T09:13:14.019Z,3.40
2018-06-25T09:15:42.543Z,3.00
2018-06-25T09:18:12.241Z,2.80
2018-06-25T09:20:41.575Z,3.27
2018-06-25T09:23:10.047Z,3.03
2018-06-25T09:25:38.581Z,3.20
2018-06-25T09:28:07.370Z,3.50
2018-06-25T09:30:36.549Z,3.10
2018-06-25T09:33:05.093Z,2.63
2018-06-25T09:35:33.734Z,2.63
2018-06-25T09:38:03.319Z,2.60
2018-06-25T09:40:32.342Z,2.63
2018-06-25T09:43:01.318Z,2.17
2018-06-25T09:45:29.876Z,2.93
2018-06-25T09:47:58.425Z,2.20
2018-06-25T09:50:27.005Z,1.40
2018-06-25T09:52:55.544Z,1.30
2018-06-25T09:55:24.116Z,1.20
2018-06-25T09:57:52.650Z,1.20
2018-06-25T10:00:26.454Z,0.90
2018-06-25T10:02:54.885Z,1.00
2018-06-25T10:05:24.221Z,1.33
2018-06-25T10:07:52.898Z,1.33
2018-06-25T10:10:21.959Z,1.37
2018-06-25T10:12:50.465Z,1.33
2018-06-25T10:15:19.288Z,1.17
2018-06-25T10:17:48.094Z,1.30
2018-06-25T10:20:16.685Z,1.37
2018-06-25T10:22:45.258Z,1.20
2018-06-25T10:25:13.809Z,1.10
2018-06-25T10:27:42.298Z,1.63
2018-06-25T10:30:10.775Z,1.87
2018-06-25T10:32:39.358Z,1.60
2018-06-25T10:35:07.850Z,1.30
2018-06-25T10:37:36.316Z,1.33
2018-06-25T10:40:05.601Z,1.50
2018-06-25T10:42:34.625Z,1.40
2018-06-25T10:45:03.428Z,1.60
2018-06-25T10:47:31.960Z,1.80
2018-06-25T10:50:00.432Z,1.73
2018-06-25T10:52:29.057Z,1.87
2018-06-25T10:54:57.636Z,2.03
2018-06-25T10:57:26.277Z,2.23
2018-06-25T10:59:54.971Z,2.77
2018-06-25T11:02:23.367Z,2.37
2018-06-25T11:04:52.464Z,2.10
2018-06-25T11:07:21.158Z,1.73
2018-06-25T11:09:50.072Z,1.80
2018-06-25T11:12:18.661Z,2.07
2018-06-25T11:14:47.120Z,1.80
2018-06-25T11:17:15.700Z,1.60
2018-06-25T11:19:45.835Z,1.60
2018-06-25T11:22:14.452Z,1.70
2018-06-25T11:24:43.080Z,1.90
2018-06-25T11:27:11.794Z,1.50
2018-06-25T11:29:40.317Z,1.10
2018-06-25T11:32:10.139Z,1.10
2018-06-25T11:34:38.754Z,1.20
2018-06-25T11:37:07.226Z,1.23
2018-06-25T11:39:36.715Z,1.40
2018-06-25T11:42:05.292Z,1.63
2018-06-25T11:44:33.899Z,1.43
2018-06-25T11:47:02.579Z,1.40
2018-06-25T11:49:31.090Z,1.43
2018-06-25T11:51:59.649Z,1.30
2018-06-25T11:54:28.154Z,1.57
2018-06-25T11:56:56.651Z,1.70
2018-06-25T11:59:25.170Z,1.47
2018-06-25T12:01:53.713Z,1.57
2018-06-25T12:04:24.017Z,1.40
2018-06-25T12:06:52.601Z,1.30
2018-06-25T12:09:21.251Z,2.00
2018-06-25T12:11:50.111Z,1.90
2018-06-25T12:14:18.621Z,1.70
2018-06-25T12:16:48.023Z,1.60
2018-06-25T12:19:17.008Z,2.13
2018-06-25T12:21:45.519Z,1.73
2018-06-25T12:24:13.972Z,1.77
2018-06-25T12:26:42.569Z,1.90
2018-06-25T12:29:11.129Z,1.70
2018-06-25T12:31:39.754Z,1.70
2018-06-25T12:34:08.259Z,1.60
2018-06-25T12:36:36.817Z,1.60
2018-06-25T12:39:08.432Z,1.60
2018-06-25T12:41:36.963Z,1.93
2018-06-25T12:44:06.172Z,1.70
2018-06-25T12:46:34.935Z,1.80
2018-06-25T12:49:03.535Z,1.90
2018-06-25T12:51:32.930Z,1.50
2018-06-25T12:54:01.472Z,2.00
2018-06-25T12:56:30.105Z,1.80
2018-06-25T12:58:58.643Z,1.90
2018-06-25T13:01:27.958Z,1.60
2018-06-25T13:03:56.511Z,1.40
2018-06-25T13:06:25.096Z,1.53
2018-06-25T13:08:54.014Z,1.70
2018-06-25T13:11:22.954Z,1.60
2018-06-25T13:13:52.271Z,1.43
2018-06-25T13:16:20.874Z,1.53
2018-06-25T13:18:49.343Z,1.57
2018-06-25T13:21:18.185Z,1.57
2018-06-25T13:23:47.066Z,1.63
2018-06-25T13:26:15.746Z,1.40
2018-06-25T13:28:44.343Z,1.50
2018-06-25T13:31:13.412Z,1.20
2018-06-25T13:33:42.603Z,1.20
2018-06-25T13:36:11.118Z,1.40
2018-06-25T13:38:40.609Z,1.70
2018-06-25T13:41:09.200Z,1.40
2018-06-25T13:43:39.104Z,1.40
2018-06-25T13:46:09.206Z,1.83
2018-06-25T13:48:37.865Z,1.73
2018-06-25T13:51:06.497Z,1.80
2018-06-25T13:53:35.316Z,2.07
2018-06-25T13:56:03.901Z,1.47
2018-06-25T13:58:33.513Z,1.80
2018-06-25T14:01:02.080Z,1.43
2018-06-25T14:03:30.599Z,1.40
2018-06-25T14:05:59.300Z,1.47
2018-06-25T14:08:27.780Z,1.80
2018-06-25T14:10:56.350Z,1.27
2018-06-25T14:13:25.820Z,1.60
2018-06-25T14:15:54.398Z,1.50
2018-06-25T14:18:23.634Z,1.57
2018-06-25T14:20:52.138Z,1.80
2018-06-25T14:23:20.686Z,1.77
2018-06-25T14:25:54.919Z,2.10
2018-06-25T14:28:28.574Z,1.97
2018-06-25T14:31:02.426Z,2.10
2018-06-25T14:33:36.734Z,2.00
2018-06-25T14:36:06.101Z,2.20
2018-06-25T14:38:34.662Z,2.07
2018-06-25T14:41:05.408Z,2.10
2018-06-25T14:43:35.897Z,2.30
2018-06-25T14:46:04.963Z,2.17
2018-06-25T14:48:34.005Z,2.30
2018-06-25T14:51:03.007Z,2.00
2018-06-25T14:53:31.546Z,2.17
2018-06-25T14:56:00.107Z,1.90
2018-06-25T14:58:28.994Z,2.10
2018-06-25T15:00:57.683Z,2.10
2018-06-25T15:03:26.167Z,2.37
2018-06-25T15:05:56.062Z,2.40
2018-06-25T15:08:25.969Z,2.07
2018-06-25T15:10:55.826Z,2.03
2018-06-25T15:13:25.740Z,2.27
2018-06-25T15:15:55.692Z,2.13
2018-06-25T15:18:26.466Z,1.90
2018-06-25T15:20:57.246Z,2.20
2018-06-25T15:23:26.764Z,2.23
2018-06-25T15:25:56.172Z,2.30
2018-06-25T15:28:25.897Z,2.50
2018-06-25T15:30:56.708Z,2.17
2018-06-25T15:33:26.672Z,2.17
2018-06-25T15:35:56.608Z,2.37
2018-06-25T15:38:26.440Z,2.13
2018-06-25T15:40:57.194Z,1.90
2018-06-25T15:43:25.754Z,1.80
2018-06-25T15:45:55.231Z,2.10
2018-06-25T15:48:24.038Z,2.20
2018-06-25T15:50:52.566Z,1.90
2018-06-25T15:53:21.999Z,2.10
2018-06-25T15:55:50.586Z,2.30
2018-06-25T15:58:19.088Z,1.83
2018-06-25T16:00:48.589Z,1.97
2018-06-25T16:03:17.129Z,1.73
2018-06-25T16:05:45.932Z,2.17
2018-06-25T16:08:15.040Z,2.13
2018-06-25T16:10:44.413Z,1.60
2018-06-25T16:13:13.386Z,2.23
2018-06-25T16:15:42.980Z,2.43
2018-06-25T16:18:11.641Z,2.00
2018-06-25T16:20:40.119Z,2.37
2018-06-25T16:23:08.711Z,2.27
2018-06-25T16:25:37.293Z,1.90
2018-06-25T16:28:06.291Z,2.03
2018-06-25T16:30:34.852Z,2.17
2018-06-25T16:33:03.593Z,2.03
2018-06-25T16:35:32.353Z,2.50
2018-06-25T16:38:01.427Z,2.20
2018-06-25T16:40:30.385Z,2.20
2018-06-25T16:42:58.978Z,2.30
2018-06-25T16:45:27.610Z,2.30
2018-06-25T16:47:56.225Z,2.00
2018-06-25T16:50:24.840Z,2.07
2018-06-25T16:52:53.364Z,2.10
2018-06-25T16:55:22.635Z,2.10
2018-06-25T16:57:51.714Z,2.00
2018-06-25T17:00:20.684Z,2.97
2018-06-25T17:02:49.963Z,2.33
2018-06-25T17:05:18.606Z,2.40
2018-06-25T17:07:47.199Z,1.77
2018-06-25T17:10:15.772Z,2.20
2018-06-25T17:12:44.667Z,2.70
2018-06-25T17:15:13.178Z,1.80
2018-06-25T17:17:42.180Z,2.47
2018-06-25T17:20:11.158Z,1.87
2018-06-25T17:22:41.897Z,1.93
2018-06-25T17:25:10.755Z,2.00
2018-06-25T17:27:39.357Z,1.67
2018-06-25T17:30:08.287Z,2.10
2018-06-25T17:32:36.968Z,1.90
2018-06-25T17:35:05.552Z,1.60
2018-06-25T17:37:34.556Z,1.80
2018-06-25T17:40:03.879Z,1.80
2018-06-25T17:42:32.798Z,1.73
2018-06-25T17:45:01.298Z,1.70
2018-06-25T17:47:30.105Z,1.50
2018-06-25T17:49:58.642Z,1.53
2018-06-25T17:52:27.202Z,1.47
2018-06-25T17:54:55.693Z,1.53
2018-06-25T17:57:24.223Z,1.53
2018-06-25T17:59:52.994Z,1.50
2018-06-25T18:02:21.546Z,1.70
2018-06-25T18:04:50.053Z,1.47
2018-06-25T18:07:18.627Z,1.50
2018-06-25T18:09:47.166Z,1.30
2018-06-25T18:12:17.647Z,1.40
2018-06-25T18:14:46.326Z,1.70
2018-06-25T18:17:14.878Z,1.60
2018-06-25T18:19:43.409Z,1.63
2018-06-25T18:22:11.960Z,1.60
2018-06-25T18:24:40.557Z,1.30
2018-06-25T18:27:09.076Z,1.73
2018-06-25T18:29:37.653Z,1.50
2018-06-25T18:32:06.357Z,1.60
2018-06-25T18:34:35.984Z,1.50
2018-06-25T18:37:04.824Z,1.40
2018-06-25T18:39:33.321Z,1.60
2018-06-25T18:42:02.153Z,1.80
2018-06-25T18:44:30.793Z,1.83
2018-06-25T18:46:59.436Z,1.90
2018-06-25T18:49:28.336Z,1.80
2018-06-25T18:51:57.469Z,1.80
2018-06-25T18:54:26.088Z,2.20
2018-06-25T18:56:55.529Z,2.00
2018-06-25T18:59:24.499Z,1.97
2018-06-25T19:01:52.730Z,2.10
2018-06-25T19:04:21.361Z,1.70
2018-06-25T19:06:51.653Z,2.30
2018-06-25T19:09:22.888Z,1.70
2018-06-25T19:11:53.701Z,2.00
2018-06-25T19:14:24.778Z,2.00
2018-06-25T19:16:55.662Z,2.20
2018-06-25T19:19:27.680Z,2.50
2018-06-25T19:21:58.710Z,2.57
2018-06-25T19:24:28.581Z,2.17
2018-06-25T19:26:59.451Z,2.00
2018-06-25T19:29:28.520Z,2.47
2018-06-25T19:31:58.845Z,2.13
2018-06-25T19:34:30.306Z,2.57
2018-06-25T19:37:01.188Z,2.40
2018-06-25T19:39:31.968Z,2.77
2018-06-25T19:42:02.836Z,2.50
2018-06-25T19:44:33.628Z,2.40
2018-06-25T19:47:06.026Z,2.53
2018-06-25T19:49:37.434Z,2.73
2018-06-25T19:52:09.174Z,2.80
2018-06-25T19:54:40.333Z,2.40
2018-06-25T19:57:11.247Z,2.23
2018-06-25T19:59:43.001Z,2.53
2018-06-25T20:02:13.732Z,2.23
2018-06-25T20:04:44.218Z,2.90
2018-06-25T20:07:12.749Z,2.57
2018-06-25T20:09:43.638Z,2.40
2018-06-25T20:12:14.317Z,2.70
2018-06-25T20:14:45.436Z,2.73
2018-06-25T20:17:15.925Z,2.77
2018-06-25T20:19:47.892Z,2.77
2018-06-25T20:22:18.337Z,2.70
2018-06-25T20:24:51.233Z,3.20
2018-06-25T20:27:23.401Z,2.60
2018-06-25T20:29:55.350Z,2.80
2018-06-25T20:32:23.978Z,2.50
2018-06-25T20:34:55.217Z,2.20
2018-06-25T20:37:25.806Z,2.33
2018-06-25T20:39:57.921Z,2.30
2018-06-25T20:42:28.725Z,2.70
2018-06-25T20:45:00.606Z,2.13
2018-06-25T20:47:31.985Z,2.60
2018-06-25T20:50:03.519Z,2.80
2018-06-25T20:52:34.433Z,3.23
2018-06-25T20:55:05.008Z,2.70
2018-06-25T20:57:34.246Z,2.67
2018-06-25T21:00:05.555Z,2.87
2018-06-25T21:02:36.319Z,3.13
2018-06-25T21:05:07.303Z,2.93
2018-06-25T21:07:38.033Z,3.13
2018-06-25T21:10:07.996Z,2.73
2018-06-25T21:12:39.829Z,2.63
2018-06-25T21:15:10.701Z,3.07
2018-06-25T21:17:41.558Z,3.00
2018-06-25T21:20:12.930Z,3.20
2018-06-25T21:22:43.676Z,2.53
2018-06-25T21:25:15.876Z,2.60
2018-06-25T21:27:47.392Z,2.67
2018-06-25T21:30:18.099Z,2.70
2018-06-25T21:32:50.719Z,3.17
2018-06-25T21:35:20.968Z,3.00
2018-06-25T21:37:53.276Z,2.57
2018-06-25T21:40:24.798Z,2.50
2018-06-25T21:42:58.154Z,2.50
2018-06-25T21:45:28.761Z,2.80
2018-06-25T21:47:59.841Z,2.77
2018-06-25T21:50:30.484Z,3.07
2018-06-25T21:53:02.518Z,3.17
2018-06-25T21:55:33.057Z,3.10
2018-06-25T21:58:04.330Z,3.03
2018-06-25T22:00:46.078Z,3.40
2018-06-25T22:03:17.584Z,2.80
2018-06-25T22:05:50.004Z,3.10
2018-06-25T22:08:20.948Z,3.10
2018-06-25T22:10:51.594Z,2.97
2018-06-25T22:13:23.897Z,2.90
2018-06-25T22:15:54.534Z,2.70
2018-06-25T22:18:26.809Z,2.70
2018-06-25T22:20:58.087Z,2.60
2018-06-25T22:23:30.630Z,3.90
2018-06-25T22:26:01.214Z,4.40
2018-06-25T22:28:31.917Z,4.80
2018-06-25T22:31:04.731Z,3.83
2018-06-25T22:33:36.073Z,4.30
2018-06-25T22:36:09.175Z,4.57
2018-06-25T22:38:40.555Z,3.97
2018-06-25T22:41:12.248Z,4.00
2018-06-25T22:43:43.804Z,3.30
2018-06-25T22:46:14.725Z,3.10
2018-06-25T22:48:45.120Z,3.10
2018-06-25T22:51:16.129Z,3.13
2018-06-25T22:53:47.100Z,3.23
2018-06-25T22:56:17.916Z,3.00
2018-06-25T22:58:50.131Z,3.23
2018-06-25T23:01:20.889Z,3.27
2018-06-25T23:03:52.404Z,2.70
2018-06-25T23:06:30.894Z,2.77
2018-06-25T23:09:03.473Z,3.13
2018-06-25T23:11:39.890Z,3.20
2018-06-25T23:14:11.033Z,3.03
2018-06-25T23:16:41.817Z,2.53
2018-06-25T23:19:13.681Z,2.90
2018-06-25T23:21:46.144Z,2.80
2018-06-25T23:24:17.188Z,2.53
2018-06-25T23:26:47.634Z,2.60
2018-06-25T23:29:18.631Z,2.80
2018-06-25T23:31:49.791Z,3.00
2018-06-25T23:34:20.915Z,2.97
2018-06-25T23:36:51.659Z,2.87
2018-06-25T23:39:22.430Z,2.53
2018-06-25T23:41:54.520Z,2.80
2018-06-25T23:44:27.352Z,2.63
2018-06-25T23:46:59.556Z,2.67
2018-06-25T23:49:31.227Z,2.50
2018-06-25T23:52:03.754Z,2.73
2018-06-25T23:54:34.512Z,2.80
2018-06-25T23:57:08.217Z,2.53
2018-06-25T23:59:39.033Z,2.43
